Time;durP1;ratioP1;P1;durP2;ratioP2;P2;SDS_P1;SDS_P2;PMS_P1;PMS_P2;Temp;Humidity;BMP_temperature;BMP_pressure;BME280_temperature;BME280_humidity;BME280_pressure;Samples;Min_cycle;Max_cycle;Signal;HPM_P1;HPM_P2
2023/03/05 00:01:43;;;;;;;8.68;1.70;;;5.40;99.90;;;;;;5053321;28;20185;-46
2023/03/05 00:04:12;;;;;;;6.97;1.77;;;5.40;99.90;;;;;;5053120;28;20173;-45
2023/03/05 00:06:38;;;;;;;11.13;2.10;;;5.40;99.90;;;;;;5051674;28;20678;-49
2023/03/05 00:09:04;;;;;;;7.53;1.65;;;5.40;99.90;;;;;;5052887;28;20221;-43
2023/03/05 00:11:32;;;;;;;8.10;2.45;;;5.40;99.90;;;;;;5053112;28;20194;-48
2023/03/05 00:13:59;;;;;;;8.95;2.25;;;5.30;99.90;;;;;;5053270;28;20635;-48
2023/03/05 00:16:25;;;;;;;5.70;1.92;;;5.40;99.90;;;;;;5052972;28;20182;-45
2023/03/05 00:18:51;;;;;;;6.82;2.00;;;5.30;99.90;;;;;;5053076;28;20171;-44
2023/03/05 00:21:21;;;;;;;11.05;2.20;;;5.40;99.90;;;;;;5052326;28;20178;-49
2023/03/05 00:23:49;;;;;;;6.20;1.67;;;5.40;99.90;;;;;;5052718;28;20178;-50
2023/03/05 00:26:16;;;;;;;9.20;2.67;;;5.40;99.90;;;;;;5053045;28;20185;-50
2023/03/05 00:28:41;;;;;;;7.30;1.90;;;5.40;99.90;;;;;;5052683;28;20324;-52
2023/03/05 00:31:07;;;;;;;10.70;2.50;;;5.40;99.90;;;;;;5052676;28;20201;-50
2023/03/05 00:33:32;;;;;;;7.45;2.10;;;5.40;99.90;;;;;;5052587;28;20170;-51
2023/03/05 00:36:01;;;;;;;9.05;2.13;;;5.40;99.90;;;;;;5053167;28;20163;-52
2023/03/05 00:38:26;;;;;;;8.07;1.92;;;5.30;99.90;;;;;;5053127;28;20171;-51
2023/03/05 00:40:52;;;;;;;8.88;1.92;;;5.30;99.90;;;;;;5052271;28;20532;-51
2023/03/05 00:43:18;;;;;;;9.20;2.17;;;5.30;99.90;;;;;;5052360;28;20171;-51
2023/03/05 00:45:43;;;;;;;8.95;2.10;;;5.30;99.90;;;;;;5052386;28;20702;-52
2023/03/05 00:48:09;;;;;;;11.10;2.00;;;5.30;99.90;;;;;;5052042;28;20567;-51
2023/03/05 00:50:34;;;;;;;5.20;1.80;;;5.30;99.90;;;;;;5052276;28;20532;-52
2023/03/05 00:53:00;;;;;;;4.82;1.73;;;5.30;99.90;;;;;;5052658;28;20541;-51
2023/03/05 00:55:25;;;;;;;4.90;2.00;;;5.30;99.90;;;;;;5052160;28;20163;-50
2023/03/05 00:57:51;;;;;;;6.65;1.83;;;5.30;99.90;;;;;;5052415;28;20166;-51
2023/03/05 01:00:17;;;;;;;6.45;1.95;;;5.30;99.90;;;;;;5051763;28;20202;-51
2023/03/05 01:02:43;;;;;;;5.93;1.65;;;5.30;99.90;;;;;;5051998;28;20171;-50
2023/03/05 01:05:13;;;;;;;5.97;1.75;;;5.30;99.90;;;;;;5051657;28;20218;-51
2023/03/05 01:07:39;;;;;;;6.70;2.67;;;5.30;99.90;;;;;;5051772;28;20646;-51
2023/03/05 01:10:05;;;;;;;4.57;1.35;;;5.30;99.90;;;;;;5051960;28;20163;-52
2023/03/05 01:12:31;;;;;;;4.18;1.88;;;5.30;99.90;;;;;;5051056;28;20254;-51
2023/03/05 01:14:56;;;;;;;9.45;1.80;;;5.20;99.90;;;;;;5052284;28;20198;-52
2023/03/05 01:17:22;;;;;;;5.35;1.20;;;5.30;99.90;;;;;;5051864;28;20171;-51
2023/03/05 01:19:47;;;;;;;3.85;1.35;;;5.20;99.90;;;;;;5051595;28;20174;-51
2023/03/05 01:22:13;;;;;;;6.45;1.42;;;5.30;99.90;;;;;;5050937;28;20225;-51
2023/03/05 01:24:38;;;;;;;6.30;1.60;;;5.20;99.90;;;;;;5051763;28;20212;-51
2023/03/05 01:27:04;;;;;;;2.40;1.65;;;5.20;99.90;;;;;;5051769;28;20246;-50
2023/03/05 01:29:29;;;;;;;12.10;2.08;;;5.20;99.90;;;;;;5050667;28;20276;-51
2023/03/05 01:31:55;;;;;;;8.75;2.15;;;5.30;99.90;;;;;;5051590;28;20245;-51
2023/03/05 01:34:20;;;;;;;11.32;3.50;;;5.30;99.90;;;;;;5051927;28;20170;-52
2023/03/05 01:36:49;;;;;;;7.80;1.92;;;5.30;99.90;;;;;;5051855;28;20166;-52
2023/03/05 01:39:15;;;;;;;4.25;1.60;;;5.20;99.90;;;;;;5051314;28;20178;-51
2023/03/05 01:41:40;;;;;;;7.20;1.60;;;5.30;99.90;;;;;;5051609;28;20205;-49
2023/03/05 01:44:06;;;;;;;6.07;1.65;;;5.20;99.90;;;;;;5051468;28;20536;-43
2023/03/05 01:46:35;;;;;;;3.50;1.73;;;5.20;99.90;;;;;;5051347;28;20162;-43
2023/03/05 01:49:03;;;;;;;3.60;1.40;;;5.20;99.90;;;;;;5050349;28;20214;-42
2023/03/05 01:51:34;;;;;;;8.20;1.42;;;5.10;99.90;;;;;;5051841;28;20174;-44
2023/03/05 01:54:00;;;;;;;4.05;1.25;;;5.10;99.90;;;;;;5051886;28;20170;-43
2023/03/05 01:56:28;;;;;;;5.80;1.27;;;5.10;99.90;;;;;;5051786;28;20530;-47
2023/03/05 01:59:02;;;;;;;3.38;0.90;;;5.10;99.90;;;;;;5051477;28;20167;-45
2023/03/05 02:01:41;;;;;;;4.95;1.33;;;5.10;99.90;;;;;;5051743;28;20577;-50
2023/03/05 02:04:10;;;;;;;8.32;1.92;;;5.10;99.90;;;;;;5051463;28;20198;-42
2023/03/05 02:06:37;;;;;;;4.93;1.40;;;5.10;99.90;;;;;;5051582;28;20218;-49
2023/03/05 02:09:03;;;;;;;3.78;1.40;;;5.10;99.90;;;;;;5051079;28;20210;-51
2023/03/05 02:11:29;;;;;;;8.70;1.90;;;5.10;99.90;;;;;;5051550;28;20174;-51
2023/03/05 02:13:55;;;;;;;4.55;1.50;;;5.10;99.90;;;;;;5051248;28;20170;-51
2023/03/05 02:16:21;;;;;;;5.68;1.90;;;5.10;99.90;;;;;;5051402;28;20708;-51
2023/03/05 02:18:46;;;;;;;3.80;1.50;;;5.10;99.90;;;;;;5051290;28;20231;-51
2023/03/05 02:21:12;;;;;;;6.45;1.52;;;5.10;99.90;;;;;;5051119;28;20233;-51
2023/03/05 02:23:38;;;;;;;7.55;3.00;;;5.10;99.90;;;;;;5051141;28;20626;-51
2023/03/05 02:26:09;;;;;;;9.27;1.95;;;5.10;99.90;;;;;;5051440;28;20593;-52
2023/03/05 02:28:58;;;;;;;7.20;1.77;;;5.10;99.90;;;;;;5050666;28;20301;-51
2023/03/05 02:31:25;;;;;;;8.57;1.98;;;5.00;99.90;;;;;;5051003;28;20171;-51
2023/03/05 02:33:51;;;;;;;11.75;2.58;;;5.00;99.90;;;;;;5052737;28;20178;-52
2023/03/05 02:36:17;;;;;;;8.50;1.98;;;5.00;99.90;;;;;;5054799;28;20171;-52
2023/03/05 02:38:44;;;;;;;7.68;2.03;;;5.00;99.90;;;;;;5055028;28;20163;-51
2023/03/05 02:41:10;;;;;;;6.25;2.13;;;5.10;99.90;;;;;;5054760;28;20175;-48
2023/03/05 02:43:35;;;;;;;9.15;2.00;;;5.00;99.90;;;;;;5053547;28;20163;-51
2023/03/05 02:46:01;;;;;;;12.18;2.08;;;5.00;99.90;;;;;;5054749;28;20182;-42
2023/03/05 02:48:27;;;;;;;5.93;1.95;;;5.00;99.90;;;;;;5054948;28;20202;-51
2023/03/05 02:50:54;;;;;;;10.43;2.10;;;5.00;99.90;;;;;;5054495;28;20182;-49
2023/03/05 02:53:21;;;;;;;8.82;2.30;;;5.00;99.90;;;;;;5054713;28;20494;-42
2023/03/05 02:55:48;;;;;;;6.60;1.70;;;5.00;99.90;;;;;;5054682;28;20174;-45
2023/03/05 02:58:14;;;;;;;6.63;2.08;;;5.00;99.90;;;;;;5054080;28;20225;-45
2023/03/05 03:00:39;;;;;;;6.57;1.60;;;5.00;99.90;;;;;;5054408;28;20196;-46
2023/03/05 03:03:05;;;;;;;7.90;2.78;;;5.00;99.90;;;;;;5054281;28;20238;-49
2023/03/05 03:05:31;;;;;;;5.80;1.80;;;5.00;99.90;;;;;;5054155;28;20210;-45
2023/03/05 03:07:56;;;;;;;6.07;1.60;;;5.00;99.90;;;;;;5054534;28;20230;-43
2023/03/05 03:10:22;;;;;;;11.02;2.17;;;5.00;99.90;;;;;;5054173;28;20658;-44
2023/03/05 03:12:47;;;;;;;4.72;2.10;;;5.00;99.90;;;;;;5054102;28;20180;-45
2023/03/05 03:15:15;;;;;;;8.35;1.90;;;4.90;99.90;;;;;;5053984;28;20177;-42
2023/03/05 03:17:41;;;;;;;10.65;2.10;;;4.90;99.90;;;;;;5054072;28;20179;-42
2023/03/05 03:20:09;;;;;;;2.38;1.30;;;4.90;99.90;;;;;;5053937;28;20174;-42
2023/03/05 03:22:35;;;;;;;10.57;2.00;;;4.90;99.90;;;;;;5053853;28;20166;-43
2023/03/05 03:25:01;;;;;;;9.48;1.90;;;4.90;99.90;;;;;;5054023;28;20368;-42
2023/03/05 03:27:27;;;;;;;7.18;1.65;;;4.90;99.90;;;;;;5054140;28;20175;-42
2023/03/05 03:29:53;;;;;;;8.60;1.88;;;4.90;99.90;;;;;;5053684;28;20584;-43
2023/03/05 03:32:18;;;;;;;6.30;2.05;;;4.80;99.90;;;;;;5053759;28;20490;-43
2023/03/05 03:34:44;;;;;;;6.13;1.90;;;4.90;99.90;;;;;;5053615;28;20287;-43
2023/03/05 03:37:09;;;;;;;6.10;2.03;;;4.90;99.90;;;;;;5053269;28;20182;-43
2023/03/05 03:39:35;;;;;;;12.90;2.15;;;4.90;99.90;;;;;;5053652;28;20162;-42
2023/03/05 03:42:01;;;;;;;13.18;2.28;;;4.90;99.90;;;;;;5053620;28;20595;-42
2023/03/05 03:44:26;;;;;;;6.43;2.00;;;4.90;99.90;;;;;;5053516;28;20581;-42
2023/03/05 03:46:53;;;;;;;5.50;1.75;;;5.00;99.90;;;;;;5052659;28;20638;-43
2023/03/05 03:49:22;;;;;;;7.03;1.63;;;4.90;99.90;;;;;;5053585;28;20264;-44
2023/03/05 03:51:48;;;;;;;6.15;1.70;;;4.90;99.90;;;;;;5053352;28;20228;-42
2023/03/05 03:54:15;;;;;;;4.82;1.80;;;4.90;99.90;;;;;;5053113;28;20183;-42
2023/03/05 03:56:41;;;;;;;4.38;1.40;;;4.90;99.90;;;;;;5053111;28;20689;-43
2023/03/05 03:59:07;;;;;;;2.42;1.70;;;4.90;99.90;;;;;;5053317;28;20171;-42
2023/03/05 04:01:33;;;;;;;5.15;1.52;;;4.90;99.90;;;;;;5053171;28;20534;-42
2023/03/05 04:03:58;;;;;;;7.70;1.85;;;4.80;99.90;;;;;;5053459;28;20190;-42
2023/03/05 04:06:24;;;;;;;6.80;1.83;;;4.90;99.90;;;;;;5052883;28;20253;-43
2023/03/05 04:08:50;;;;;;;7.45;1.80;;;4.80;99.90;;;;;;5052625;28;20619;-45
2023/03/05 04:11:18;;;;;;;5.80;1.60;;;4.80;99.90;;;;;;5051692;28;20177;-51
2023/03/05 04:13:44;;;;;;;9.77;2.17;;;4.70;99.90;;;;;;5053032;28;20532;-49
2023/03/05 04:16:09;;;;;;;7.72;1.90;;;4.70;99.90;;;;;;5052996;28;20167;-47
2023/03/05 04:18:36;;;;;;;7.18;1.80;;;4.70;99.90;;;;;;5052397;28;20253;-49
2023/03/05 04:21:01;;;;;;;14.23;2.35;;;4.70;99.90;;;;;;5053065;28;20206;-48
2023/03/05 04:23:27;;;;;;;9.45;2.33;;;4.70;99.90;;;;;;5053146;28;20240;-50
2023/03/05 04:25:52;;;;;;;8.75;1.80;;;4.70;99.90;;;;;;5052775;28;20634;-49
2023/03/05 04:28:18;;;;;;;5.97;1.70;;;4.70;99.90;;;;;;5051195;28;20737;-51
2023/03/05 04:30:44;;;;;;;5.10;1.95;;;4.70;99.90;;;;;;5052877;28;20179;-51
2023/03/05 04:33:09;;;;;;;8.32;1.95;;;4.70;99.90;;;;;;5051914;28;20717;-51
2023/03/05 04:35:35;;;;;;;8.95;1.92;;;4.70;99.90;;;;;;5051718;28;20178;-50
2023/03/05 04:38:01;;;;;;;10.48;2.60;;;4.60;99.90;;;;;;5052021;28;20220;-48
2023/03/05 04:40:26;;;;;;;9.27;2.05;;;4.60;99.90;;;;;;5052368;28;20224;-51
2023/03/05 04:42:52;;;;;;;8.25;1.92;;;4.70;99.90;;;;;;5051930;28;20177;-51
2023/03/05 04:45:17;;;;;;;8.50;1.70;;;4.60;99.90;;;;;;5051949;28;20767;-45
2023/03/05 04:47:43;;;;;;;7.07;2.10;;;4.60;99.90;;;;;;5051866;28;20253;-52
2023/03/05 04:50:10;;;;;;;11.77;2.58;;;4.70;99.90;;;;;;5051977;28;20178;-51
2023/03/05 04:52:41;;;;;;;8.27;1.92;;;4.60;99.90;;;;;;5051908;28;20654;-52
2023/03/05 04:55:07;;;;;;;14.25;2.47;;;4.60;99.90;;;;;;5051667;28;20202;-51
2023/03/05 04:57:34;;;;;;;9.27;1.92;;;4.60;99.90;;;;;;5051698;28;20174;-51
2023/03/05 04:59:59;;;;;;;12.15;2.42;;;4.60;99.90;;;;;;5052043;28;20167;-51
2023/03/05 05:02:25;;;;;;;6.50;2.03;;;4.60;99.90;;;;;;5051930;28;20285;-51
2023/03/05 05:04:53;;;;;;;11.65;2.30;;;4.60;99.90;;;;;;5051112;28;20206;-51
2023/03/05 05:07:20;;;;;;;4.80;2.20;;;4.60;99.90;;;;;;5051396;28;20790;-52
2023/03/05 05:09:45;;;;;;;8.07;2.50;;;4.60;99.90;;;;;;5051354;28;20217;-51
2023/03/05 05:12:11;;;;;;;10.00;2.10;;;4.60;99.90;;;;;;5051457;28;20305;-52
2023/03/05 05:14:36;;;;;;;12.07;2.78;;;4.60;99.90;;;;;;5051419;28;20170;-52
2023/03/05 05:17:05;;;;;;;8.35;2.42;;;4.60;99.90;;;;;;5051396;28;20170;-51
2023/03/05 05:19:34;;;;;;;5.45;2.15;;;4.50;99.90;;;;;;5051519;28;20536;-48
2023/03/05 05:22:00;;;;;;;6.70;2.00;;;4.60;99.90;;;;;;5051700;28;20175;-51
2023/03/05 05:24:25;;;;;;;15.15;2.33;;;4.50;99.90;;;;;;5051691;28;20182;-51
2023/03/05 05:26:54;;;;;;;8.88;2.30;;;4.50;99.90;;;;;;5050904;28;20165;-51
2023/03/05 05:29:19;;;;;;;8.30;2.60;;;4.60;99.90;;;;;;5050965;28;20261;-51
2023/03/05 05:31:45;;;;;;;6.88;1.90;;;4.50;99.90;;;;;;5051118;28;20642;-45
2023/03/05 05:34:11;;;;;;;5.85;2.28;;;4.50;99.90;;;;;;5049822;28;20189;-52
2023/03/05 05:36:36;;;;;;;8.05;1.77;;;4.50;99.90;;;;;;5051062;28;20626;-51
2023/03/05 05:39:03;;;;;;;8.23;2.15;;;4.40;99.90;;;;;;5051032;28;20618;-51
2023/03/05 05:41:28;;;;;;;10.55;2.10;;;4.50;99.90;;;;;;5051691;28;20244;-49
2023/03/05 05:43:54;;;;;;;8.20;2.20;;;4.40;99.90;;;;;;5050982;28;20650;-51
2023/03/05 05:46:20;;;;;;;17.73;3.20;;;4.50;99.90;;;;;;5050921;28;20631;-51
2023/03/05 05:48:46;;;;;;;13.82;2.88;;;4.40;99.90;;;;;;5051134;28;20210;-51
2023/03/05 05:51:16;;;;;;;7.13;2.10;;;4.50;99.90;;;;;;5049805;28;20649;-48
2023/03/05 05:53:42;;;;;;;9.18;2.63;;;4.40;99.90;;;;;;5050886;28;20586;-51
2023/03/05 05:56:10;;;;;;;8.80;2.42;;;4.50;99.90;;;;;;5050679;28;20201;-51
2023/03/05 05:58:36;;;;;;;15.48;3.17;;;4.50;99.90;;;;;;5049666;28;20205;-51
2023/03/05 06:01:10;;;;;;;9.80;2.53;;;4.50;99.90;;;;;;5050799;28;20182;-51
2023/03/05 06:03:35;;;;;;;11.60;2.50;;;4.50;99.90;;;;;;5050938;28;20171;-43
2023/03/05 06:06:01;;;;;;;8.27;2.60;;;4.60;99.90;;;;;;5050717;28;20229;-44
2023/03/05 06:08:26;;;;;;;12.27;2.55;;;4.50;99.90;;;;;;5052036;28;20688;-48
2023/03/05 06:10:54;;;;;;;11.30;2.53;;;4.60;99.90;;;;;;5054837;28;20708;-46
2023/03/05 06:13:19;;;;;;;14.52;3.08;;;4.50;99.90;;;;;;5054528;28;20201;-48
2023/03/05 06:15:54;;;;;;;12.48;2.72;;;4.50;99.90;;;;;;5054900;28;20244;-45
2023/03/05 06:18:20;;;;;;;7.28;2.47;;;4.40;99.90;;;;;;5054655;28;20162;-46
2023/03/05 06:21:00;;;;;;;8.88;2.08;;;4.40;99.90;;;;;;5054713;28;20258;-45
2023/03/05 06:23:26;;;;;;;11.95;2.55;;;4.40;99.90;;;;;;5054658;28;20177;-46
2023/03/05 06:25:51;;;;;;;13.55;2.92;;;4.40;99.90;;;;;;5054670;28;20250;-43
2023/03/05 06:28:17;;;;;;;21.98;3.35;;;4.50;99.90;;;;;;5054128;28;20216;-46
2023/03/05 06:30:43;;;;;;;9.60;2.75;;;4.40;99.90;;;;;;5054760;28;20163;-45
2023/03/05 06:33:09;;;;;;;7.78;2.47;;;4.40;99.90;;;;;;5054165;28;20173;-44
2023/03/05 06:35:38;;;;;;;4.70;2.55;;;4.40;99.90;;;;;;5054360;28;20173;-46
2023/03/05 06:38:03;;;;;;;9.52;2.72;;;4.50;99.90;;;;;;5054319;28;20178;-45
2023/03/05 06:40:29;;;;;;;9.90;2.95;;;4.50;99.90;;;;;;5054408;28;20634;-46
2023/03/05 06:42:54;;;;;;;8.30;2.78;;;4.50;99.90;;;;;;5054682;28;20170;-44
2023/03/05 06:45:20;;;;;;;14.88;3.50;;;4.60;99.90;;;;;;5054141;28;20634;-45
2023/03/05 06:47:45;;;;;;;9.75;2.72;;;4.60;99.90;;;;;;5053733;28;20178;-46
2023/03/05 06:50:12;;;;;;;7.95;2.78;;;4.60;99.90;;;;;;5053751;28;20341;-43
2023/03/05 06:52:39;;;;;;;7.47;3.47;;;4.60;99.90;;;;;;5054053;28;20571;-43
2023/03/05 06:55:06;;;;;;;7.53;3.28;;;4.70;99.90;;;;;;5054128;28;20174;-43
2023/03/05 06:57:31;;;;;;;9.55;2.65;;;6.30;99.90;;;;;;5054168;28;20178;-44
2023/03/05 06:59:57;;;;;;;11.07;2.72;;;4.70;99.90;;;;;;5054557;28;20170;-46
2023/03/05 07:02:23;;;;;;;6.28;2.55;;;4.60;99.90;;;;;;5053832;28;20642;-44
2023/03/05 07:04:48;;;;;;;7.07;2.38;;;4.70;99.90;;;;;;5053180;28;20237;-43
2023/03/05 07:07:14;;;;;;;5.07;2.13;;;4.70;99.90;;;;;;5053817;28;20179;-43
2023/03/05 07:09:42;;;;;;;4.90;2.40;;;4.70;99.90;;;;;;5053685;28;20217;-43
2023/03/05 07:12:11;;;;;;;9.95;3.13;;;4.70;99.90;;;;;;5053344;28;20198;-43
2023/03/05 07:14:37;;;;;;;7.25;2.85;;;4.70;99.90;;;;;;5053798;28;20170;-43
2023/03/05 07:17:05;;;;;;;6.63;2.75;;;4.70;99.90;;;;;;5053430;28;20249;-43
2023/03/05 07:19:31;;;;;;;6.95;2.35;;;4.80;99.90;;;;;;5052913;28;20159;-42
2023/03/05 07:21:56;;;;;;;7.07;2.55;;;4.90;99.90;;;;;;5053262;28;20209;-43
2023/03/05 07:24:26;;;;;;;6.97;2.38;;;4.90;99.90;;;;;;5053505;28;20621;-43
2023/03/05 07:26:51;;;;;;;5.25;2.05;;;4.90;99.90;;;;;;5053455;28;20163;-43
2023/03/05 07:29:17;;;;;;;8.13;2.95;;;4.90;99.90;;;;;;5053464;28;20213;-43
2023/03/05 07:31:42;;;;;;;11.73;3.20;;;5.00;99.90;;;;;;5053539;28;20163;-42
2023/03/05 07:34:09;;;;;;;4.80;2.97;;;4.90;99.90;;;;;;5052962;28;20312;-44
2023/03/05 07:36:34;;;;;;;8.93;2.58;;;4.90;99.90;;;;;;5053022;28;20194;-42
2023/03/05 07:39:00;;;;;;;9.32;2.47;;;4.90;99.90;;;;;;5053322;28;20179;-42
2023/03/05 07:41:26;;;;;;;5.15;2.53;;;4.90;99.90;;;;;;5050746;28;20162;-42
2023/03/05 07:43:53;;;;;;;7.40;3.33;;;4.80;99.90;;;;;;5051657;28;20170;-42
2023/03/05 07:46:22;;;;;;;6.15;2.47;;;4.80;99.90;;;;;;5051871;28;20217;-43
2023/03/05 07:48:48;;;;;;;9.25;3.20;;;4.80;99.90;;;;;;5051503;28;20206;-45
2023/03/05 07:51:16;;;;;;;6.10;2.88;;;4.90;99.90;;;;;;5051564;28;20171;-44
2023/03/05 07:53:42;;;;;;;5.78;2.63;;;4.90;99.90;;;;;;5051966;28;20680;-45
2023/03/05 07:56:08;;;;;;;6.47;3.38;;;4.80;99.90;;;;;;5051527;28;20229;-49
2023/03/05 07:58:34;;;;;;;9.50;2.80;;;4.80;99.90;;;;;;5050624;28;20170;-42
2023/03/05 08:01:00;;;;;;;8.68;2.50;;;4.90;99.90;;;;;;5050357;28;20163;-42
2023/03/05 08:03:26;;;;;;;12.05;2.88;;;4.90;99.90;;;;;;5051661;28;20232;-44
2023/03/05 08:05:51;;;;;;;7.25;2.90;;;4.90;99.90;;;;;;5050021;28;20249;-44
2023/03/05 08:08:17;;;;;;;9.38;2.92;;;4.90;99.90;;;;;;5051378;28;20222;-47
2023/03/05 08:10:43;;;;;;;6.68;2.08;;;4.90;99.90;;;;;;5052139;28;20175;-45
2023/03/05 08:13:08;;;;;;;7.85;3.25;;;4.90;99.90;;;;;;5051322;28;20177;-47
2023/03/05 08:15:36;;;;;;;10.32;3.08;;;4.90;99.90;;;;;;5051430;28;20206;-51
2023/03/05 08:18:02;;;;;;;4.75;2.65;;;4.90;99.90;;;;;;5051357;28;20258;-44
2023/03/05 08:20:29;;;;;;;12.52;3.03;;;4.90;99.90;;;;;;5051629;28;20170;-43
2023/03/05 08:22:56;;;;;;;11.05;3.67;;;5.00;99.90;;;;;;5051385;28;20249;-52
2023/03/05 08:25:21;;;;;;;10.02;3.95;;;4.90;99.90;;;;;;5051265;28;20163;-43
2023/03/05 08:27:48;;;;;;;8.85;3.38;;;5.00;99.90;;;;;;5051348;28;20166;-46
2023/03/05 08:30:16;;;;;;;13.80;3.50;;;5.00;99.90;;;;;;5050818;28;20686;-42
2023/03/05 08:32:42;;;;;;;7.75;3.17;;;5.00;99.90;;;;;;5050614;28;20182;-44
2023/03/05 08:35:08;;;;;;;8.80;3.95;;;5.00;99.90;;;;;;5050471;28;20174;-43
2023/03/05 08:37:34;;;;;;;11.23;3.95;;;6.10;99.90;;;;;;5050987;28;20254;-43
2023/03/05 08:40:00;;;;;;;10.88;3.97;;;5.10;99.90;;;;;;5050814;28;20170;-43
2023/03/05 08:42:25;;;;;;;7.85;3.47;;;5.10;99.90;;;;;;5051110;28;20179;-46
2023/03/05 08:44:51;;;;;;;20.95;4.03;;;5.00;99.90;;;;;;5050362;28;20171;-52
2023/03/05 08:47:17;;;;;;;12.32;3.58;;;5.10;99.90;;;;;;5050590;28;20175;-43
2023/03/05 08:49:43;;;;;;;11.50;3.15;;;5.10;99.90;;;;;;5050468;28;20220;-43
2023/03/05 08:52:09;;;;;;;15.38;3.67;;;5.10;99.90;;;;;;5050337;28;20258;-48
2023/03/05 08:54:36;;;;;;;10.70;3.22;;;5.20;99.90;;;;;;5050750;28;20177;-44
2023/03/05 08:57:02;;;;;;;7.25;3.42;;;5.30;99.90;;;;;;5050623;28;20251;-47
2023/03/05 08:59:28;;;;;;;13.00;4.15;;;5.30;99.90;;;;;;5050719;28;20237;-43
2023/03/05 09:01:53;;;;;;;13.38;3.88;;;5.40;99.90;;;;;;5050452;28;20169;-42
2023/03/05 09:04:19;;;;;;;5.75;2.67;;;5.60;99.90;;;;;;5050052;28;20178;-43
2023/03/05 09:06:45;;;;;;;9.20;3.30;;;5.60;99.90;;;;;;5050149;28;20224;-44
2023/03/05 09:09:12;;;;;;;6.10;3.38;;;5.60;99.90;;;;;;5050353;28;20210;-45
2023/03/05 09:11:39;;;;;;;7.50;3.20;;;5.80;99.90;;;;;;5048999;28;20698;-46
2023/03/05 09:14:05;;;;;;;10.95;3.17;;;5.80;99.90;;;;;;5050294;28;20245;-43
2023/03/05 09:16:32;;;;;;;8.00;4.13;;;5.80;99.90;;;;;;5050282;28;20163;-42
2023/03/05 09:18:58;;;;;;;9.30;4.30;;;5.80;99.90;;;;;;5050525;28;20174;-45
2023/03/05 09:21:25;;;;;;;5.78;4.55;;;5.80;99.90;;;;;;5050269;28;20181;-42
2023/03/05 09:23:51;;;;;;;12.45;4.30;;;5.80;99.90;;;;;;5049068;28;20179;-43
2023/03/05 09:26:20;;;;;;;11.90;4.22;;;5.90;99.90;;;;;;5050082;28;20182;-44
2023/03/05 09:28:46;;;;;;;7.95;4.63;;;5.90;99.90;;;;;;5050384;28;20209;-42
2023/03/05 09:31:11;;;;;;;6.07;3.53;;;5.80;99.90;;;;;;5050169;28;20171;-42
2023/03/05 09:33:37;;;;;;;7.60;3.80;;;5.80;99.90;;;;;;5049497;28;20631;-42
2023/03/05 09:36:05;;;;;;;7.30;3.90;;;5.70;99.90;;;;;;5049881;28;20257;-43
2023/03/05 09:38:31;;;;;;;9.55;4.70;;;5.70;99.90;;;;;;5050331;28;20162;-49
2023/03/05 09:41:06;;;;;;;13.43;4.75;;;5.60;99.90;;;;;;5048907;28;20871;-51
2023/03/05 09:43:31;;;;;;;13.32;5.82;;;5.50;99.90;;;;;;5049167;28;20253;-44
2023/03/05 09:46:03;;;;;;;11.48;4.72;;;5.50;99.90;;;;;;5050248;28;20721;-52
2023/03/05 09:49:09;;;;;;;8.40;5.35;;;5.50;99.90;;;;;;5050122;28;20241;-48
2023/03/05 09:51:39;;;;;;;15.25;6.35;;;5.50;99.90;;;;;;5048424;28;20167;-49
2023/03/05 09:54:40;;;;;;;13.10;8.02;;;5.60;99.90;;;;;;5050070;28;20170;-51
2023/03/05 09:57:16;;;;;;;14.93;8.27;;;5.60;99.90;;;;;;5038174;28;20178;-43
2023/03/05 09:59:56;;;;;;;11.15;6.57;;;5.70;99.90;;;;;;5049390;28;20232;-46
2023/03/05 10:02:29;;;;;;;15.60;7.82;;;5.80;99.90;;;;;;5049420;28;20298;-46
2023/03/05 10:05:21;;;;;;;10.07;5.50;;;5.70;99.90;;;;;;5049197;28;20210;-50
2023/03/05 10:07:59;;;;;;;11.35;5.13;;;8.90;99.90;;;;;;5049472;28;20182;-50
2023/03/05 10:10:34;;;;;;;9.02;6.57;;;5.80;99.90;;;;;;5049775;28;20178;-48
2023/03/05 10:13:09;;;;;;;11.20;5.70;;;5.80;99.90;;;;;;5049833;28;20158;-42
2023/03/05 10:15:52;;;;;;;12.85;6.25;;;5.80;99.90;;;;;;5049053;28;20166;-46
2023/03/05 10:18:21;;;;;;;8.45;5.60;;;6.00;99.90;;;;;;5049375;28;20250;-42
2023/03/05 10:21:00;;;;;;;10.63;5.95;;;5.90;99.90;;;;;;5048004;28;20193;-44
2023/03/05 10:23:57;;;;;;;9.75;6.15;;;5.90;99.90;;;;;;5049000;28;20661;-43
2023/03/05 10:26:43;;;;;;;9.68;6.43;;;6.00;99.90;;;;;;5049086;28;20194;-48
2023/03/05 10:29:21;;;;;;;15.40;7.93;;;5.80;99.90;;;;;;5048839;28;20198;-43
2023/03/05 10:32:03;;;;;;;9.18;5.65;;;5.80;99.90;;;;;;5048932;28;20659;-45
2023/03/05 10:35:04;;;;;;;8.50;4.75;;;5.70;99.90;;;;;;5049146;28;20217;-43
2023/03/05 10:38:02;;;;;;;5.50;4.00;;;5.70;99.90;;;;;;5049384;28;20167;-42
2023/03/05 10:40:28;;;;;;;5.70;4.75;;;5.60;99.90;;;;;;5048025;28;20167;-42
2023/03/05 10:43:06;;;;;;;9.68;4.63;;;5.50;99.90;;;;;;5048552;28;20701;-43
2023/03/05 10:45:40;;;;;;;8.18;5.38;;;5.70;99.90;;;;;;5048615;28;20236;-42
2023/03/05 10:48:32;;;;;;;7.03;4.35;;;5.80;99.90;;;;;;5048992;28;20505;-43
2023/03/05 10:51:22;;;;;;;7.47;5.35;;;5.80;99.90;;;;;;5049243;28;20187;-43
2023/03/05 10:53:58;;;;;;;6.63;4.57;;;5.80;99.90;;;;;;5048549;28;20174;-44
2023/03/05 10:56:26;;;;;;;6.40;4.50;;;5.90;99.90;;;;;;5052272;28;20642;-43
2023/03/05 10:58:52;;;;;;;5.75;4.43;;;5.80;99.90;;;;;;5052472;28;20185;-42
2023/03/05 11:01:26;;;;;;;7.97;5.55;;;5.80;99.90;;;;;;5052604;28;20167;-44
2023/03/05 11:04:02;;;;;;;6.00;4.68;;;5.70;99.90;;;;;;5051056;28;20672;-42
2023/03/05 11:06:45;;;;;;;7.55;5.38;;;5.70;99.90;;;;;;5052241;28;20230;-43
2023/03/05 11:09:28;;;;;;;9.02;4.90;;;5.70;99.90;;;;;;5052279;28;20209;-42
2023/03/05 11:12:03;;;;;;;6.85;5.60;;;5.60;99.90;;;;;;5052204;28;20169;-43
2023/03/05 11:14:31;;;;;;;7.25;5.70;;;5.60;99.90;;;;;;5052506;28;20253;-46
2023/03/05 11:16:59;;;;;;;7.22;5.47;;;5.60;99.90;;;;;;5052539;28;20174;-46
2023/03/05 11:19:31;;;;;;;8.50;5.70;;;5.70;99.90;;;;;;5052037;28;20190;-43
2023/03/05 11:22:13;;;;;;;9.27;5.57;;;5.60;99.90;;;;;;5052487;28;20170;-43
2023/03/05 11:24:40;;;;;;;8.18;5.35;;;5.60;99.90;;;;;;5052174;28;20274;-43
2023/03/05 11:27:23;;;;;;;7.93;5.25;;;5.70;99.90;;;;;;5051838;28;20634;-44
2023/03/05 11:29:49;;;;;;;8.65;5.55;;;5.70;99.90;;;;;;5050464;28;20545;-52
2023/03/05 11:32:26;;;;;;;8.15;5.30;;;5.70;99.90;;;;;;5051306;28;20246;-46
2023/03/05 11:34:54;;;;;;;11.85;5.55;;;5.80;99.90;;;;;;5051674;28;20174;-50
2023/03/05 11:37:26;;;;;;;10.85;4.82;;;6.00;99.90;;;;;;5051628;28;20251;-50
2023/03/05 11:40:26;;;;;;;9.98;4.68;;;6.10;99.90;;;;;;5051786;28;20578;-48
2023/03/05 11:42:59;;;;;;;8.15;3.90;;;6.00;99.90;;;;;;5050145;28;20191;-52
2023/03/05 11:45:27;;;;;;;5.72;3.88;;;6.10;99.90;;;;;;5051789;28;20178;-47
2023/03/05 11:47:57;;;;;;;9.27;4.72;;;6.10;99.90;;;;;;5051482;28;20630;-44
2023/03/05 11:50:28;;;;;;;6.15;4.03;;;6.20;99.90;;;;;;5051268;28;20676;-43
2023/03/05 11:53:06;;;;;;;6.40;4.50;;;6.20;99.90;;;;;;5051208;28;20171;-42
2023/03/05 11:55:37;;;;;;;5.30;4.22;;;6.30;99.90;;;;;;5051500;28;20174;-44
2023/03/05 11:58:24;;;;;;;8.63;5.53;;;6.50;99.90;;;;;;5051389;28;20171;-45
2023/03/05 12:00:51;;;;;;;7.45;4.05;;;6.30;99.90;;;;;;5050018;28;20174;-43
2023/03/05 12:03:19;;;;;;;6.00;3.78;;;6.30;99.90;;;;;;5051305;28;20170;-42
2023/03/05 12:05:52;;;;;;;5.05;4.15;;;6.40;99.90;;;;;;5049934;28;20214;-44
2023/03/05 12:08:24;;;;;;;5.22;4.28;;;6.40;99.90;;;;;;5050595;28;20203;-49
2023/03/05 12:10:51;;;;;;;4.93;4.07;;;6.40;99.90;;;;;;5050552;28;20174;-44
2023/03/05 12:13:30;;;;;;;6.57;3.85;;;6.40;99.90;;;;;;5051490;28;20166;-44
2023/03/05 12:16:14;;;;;;;5.47;3.70;;;6.50;99.90;;;;;;5050690;28;20178;-43
2023/03/05 12:19:09;;;;;;;6.88;3.83;;;6.50;99.90;;;;;;5050351;28;20185;-45
2023/03/05 12:21:35;;;;;;;6.95;3.70;;;6.50;99.90;;;;;;5050599;28;20167;-43
2023/03/05 12:24:21;;;;;;;10.63;4.10;;;6.50;99.90;;;;;;5049520;28;20285;-42
2023/03/05 12:27:05;;;;;;;4.53;3.80;;;6.50;99.90;;;;;;5050737;28;20704;-42
2023/03/05 12:29:31;;;;;;;11.00;4.40;;;6.40;99.90;;;;;;5050120;28;20202;-42
2023/03/05 12:31:59;;;;;;;7.07;4.45;;;6.40;99.90;;;;;;5050897;28;20170;-41
2023/03/05 12:34:40;;;;;;;7.32;4.85;;;6.40;99.90;;;;;;5048832;28;20182;-42
2023/03/05 12:37:24;;;;;;;7.53;5.75;;;6.40;99.90;;;;;;5050431;28;20546;-42
2023/03/05 12:40:09;;;;;;;8.20;6.05;;;6.20;99.90;;;;;;5050464;28;20242;-42
2023/03/05 12:42:38;;;;;;;11.90;6.75;;;6.20;99.90;;;;;;5049968;28;20206;-42
2023/03/05 12:45:15;;;;;;;12.60;6.82;;;6.40;99.90;;;;;;5048742;28;20232;-42
2023/03/05 12:47:47;;;;;;;10.25;6.45;;;6.40;99.90;;;;;;5050273;28;20158;-42
2023/03/05 12:50:28;;;;;;;8.55;6.38;;;6.30;99.90;;;;;;5049944;28;20210;-42
2023/03/05 12:53:05;;;;;;;11.70;5.82;;;6.40;99.90;;;;;;5049899;28;20257;-42
2023/03/05 12:55:38;;;;;;;9.75;6.68;;;6.40;99.90;;;;;;5049113;28;20494;-44
2023/03/05 12:58:14;;;;;;;7.63;5.63;;;6.40;99.90;;;;;;5050323;28;20261;-42
2023/03/05 13:00:48;;;;;;;7.80;6.25;;;6.40;99.90;;;;;;5050402;28;20170;-51
2023/03/05 13:03:29;;;;;;;8.55;5.50;;;6.50;99.90;;;;;;5050217;28;20170;-41
2023/03/05 13:05:56;;;;;;;7.40;5.30;;;6.40;99.90;;;;;;5049610;28;20301;-53